Terminal Aerodrome Forecast
Issued by NWS Glasgow, MT

Home | Current Version | Previous Version | Text Only | Print | Product List | Glossary On
Versions: 1 2 3 4 5 6 7 8 9 10 11 12 13 14 15 16 17 18 19 20 21 22 23 24 25
000
FTUS45 KGGW 301700 CCA
TAFGGW
TAF COR
KGGW 301743Z 3018/3118 31007KT P6SM FEW002
     FM310300 07008KT 5SM BR FEW002 SCT016
     FM310600 08010KT P6SM FEW010 BKN030
     FM311200 07017KT 3SM -SN BKN007 OVC030=

USA.gov is the U.S. government's official web portal to all federal, state and local government web resources and services.